createdAt,value
2023-05-10T16:47:14.760Z,19.26
2023-05-10T16:48:14.649Z,19.21
2023-05-10T16:49:14.652Z,19.29
2023-05-10T16:50:14.660Z,19.16
2023-05-10T16:51:14.673Z,19.21
2023-05-10T16:52:14.679Z,19.26
2023-05-10T16:53:14.721Z,19.29
2023-05-10T16:54:14.712Z,19.22
2023-05-10T16:55:14.904Z,19.31
2023-05-10T16:56:14.710Z,19.31
2023-05-10T16:57:14.721Z,19.31
2023-05-10T16:58:14.741Z,19.24
2023-05-10T16:59:14.740Z,19.30
2023-05-10T17:00:14.744Z,19.22
2023-05-10T17:01:14.800Z,19.19
2023-05-10T17:02:14.833Z,19.16
2023-05-10T17:03:14.962Z,19.16
2023-05-10T17:04:14.872Z,19.22
2023-05-10T17:05:14.863Z,19.22
2023-05-10T17:06:14.820Z,19.22
2023-05-10T17:07:15.631Z,19.24
2023-05-10T17:08:14.834Z,19.27
2023-05-10T17:09:14.844Z,19.30
2023-05-10T17:10:14.856Z,19.22
2023-05-10T17:11:14.867Z,19.18
2023-05-10T17:12:14.868Z,19.14
2023-05-10T17:13:14.881Z,19.07
2023-05-10T17:14:14.892Z,19.07
2023-05-10T17:15:15.036Z,19.07
2023-05-10T17:16:15.003Z,19.11
2023-05-10T17:17:14.925Z,19.02
2023-05-10T17:18:14.932Z,19.02
2023-05-10T17:19:14.972Z,19.09
2023-05-10T17:20:14.964Z,19.00
2023-05-10T17:21:14.954Z,19.00
2023-05-10T17:22:14.978Z,18.96
2023-05-10T17:23:14.982Z,18.98
2023-05-10T17:24:15.005Z,19.02
2023-05-10T17:25:15.183Z,18.99
2023-05-10T17:26:15.010Z,18.98
2023-05-10T17:27:15.218Z,18.98
2023-05-10T17:28:15.033Z,19.04
2023-05-10T17:29:15.036Z,19.02
2023-05-10T17:30:15.050Z,18.96
2023-05-10T17:31:15.145Z,19.04
2023-05-10T17:32:15.089Z,19.00
2023-05-10T17:33:15.085Z,19.08
2023-05-10T17:34:15.086Z,18.89
2023-05-10T17:35:15.235Z,18.86
2023-05-10T17:36:17.724Z,18.83
2023-05-10T17:37:15.124Z,18.90
2023-05-10T17:38:15.121Z,18.80
2023-05-10T17:39:15.146Z,18.88
2023-05-10T17:40:15.148Z,18.84
2023-05-10T17:41:15.359Z,18.84
2023-05-10T17:42:15.174Z,18.80
2023-05-10T17:43:15.179Z,18.84
2023-05-10T17:44:15.180Z,18.80
2023-05-10T17:45:15.455Z,18.74
2023-05-10T17:46:15.228Z,18.78
2023-05-10T17:47:15.219Z,18.81
2023-05-10T17:48:15.232Z,18.78
2023-05-10T17:49:15.279Z,18.83
2023-05-10T17:50:15.245Z,18.80
2023-05-10T17:51:15.286Z,18.77
2023-05-10T17:52:15.264Z,18.77
2023-05-10T17:53:15.278Z,18.81
2023-05-10T17:54:15.285Z,18.71
2023-05-10T17:55:15.476Z,18.71
2023-05-10T17:56:15.301Z,18.63
2023-05-10T17:57:15.305Z,18.75
2023-05-10T17:58:15.319Z,18.68
2023-05-10T17:59:15.324Z,18.66
2023-05-10T18:00:15.339Z,18.60
2023-05-10T18:01:15.393Z,18.58
2023-05-10T18:02:15.360Z,18.63
2023-05-10T18:03:15.362Z,18.58
2023-05-10T18:04:15.401Z,18.58
2023-05-10T18:05:15.659Z,18.52
2023-05-10T18:06:15.393Z,18.43
2023-05-10T18:07:15.445Z,18.43
2023-05-10T18:08:15.409Z,18.52
2023-05-10T18:09:15.416Z,18.47
2023-05-10T18:10:15.453Z,18.41
2023-05-10T18:11:15.439Z,18.55
2023-05-10T18:12:15.452Z,18.40
2023-05-10T18:13:15.461Z,18.35
2023-05-10T18:14:20.577Z,18.29
2023-05-10T18:15:15.584Z,18.29
2023-05-10T18:16:15.493Z,18.29
2023-05-10T18:17:15.488Z,18.33
2023-05-10T18:18:15.498Z,18.25
2023-05-10T18:19:15.518Z,18.28
2023-05-10T18:20:15.554Z,18.28
2023-05-10T18:21:15.527Z,18.25
2023-05-10T18:22:15.740Z,18.23
2023-05-10T18:23:15.573Z,18.25
2023-05-10T18:24:16.867Z,18.35
2023-05-10T18:25:15.673Z,18.35
2023-05-10T18:26:15.575Z,18.22
2023-05-10T18:27:15.576Z,18.28
2023-05-10T18:28:15.593Z,18.22
2023-05-10T18:29:15.612Z,18.28
2023-05-10T18:30:15.617Z,18.28
2023-05-10T18:31:15.661Z,18.16
2023-05-10T18:32:15.829Z,18.15
2023-05-10T18:33:15.632Z,18.22
2023-05-10T18:34:15.653Z,18.19
2023-05-10T18:35:15.676Z,18.16
2023-05-10T18:36:15.683Z,18.18
2023-05-10T18:37:15.676Z,18.11
2023-05-10T18:38:15.685Z,18.13
2023-05-10T18:39:15.717Z,18.08
2023-05-10T18:40:15.708Z,18.08
2023-05-10T18:41:15.715Z,18.01
2023-05-10T18:42:15.721Z,18.04
2023-05-10T18:43:15.721Z,18.03
2023-05-10T18:44:15.728Z,18.00
2023-05-10T18:45:16.017Z,17.95
2023-05-10T18:46:15.774Z,17.94
2023-05-10T18:47:15.770Z,18.00
2023-05-10T18:48:15.775Z,17.92
2023-05-10T18:49:15.987Z,17.90
2023-05-10T18:50:15.794Z,17.87
2023-05-10T18:51:15.797Z,17.83
2023-05-10T18:52:15.810Z,17.85
2023-05-10T18:53:15.811Z,17.79
2023-05-10T18:54:15.826Z,17.89
2023-05-10T18:55:16.261Z,17.70
2023-05-10T18:56:15.836Z,17.78
2023-05-10T18:57:15.847Z,17.74
2023-05-10T18:58:15.859Z,17.71
2023-05-10T18:59:15.864Z,17.72
2023-05-10T19:00:15.875Z,17.68
2023-05-10T19:01:17.192Z,17.67
2023-05-10T19:02:15.932Z,17.68
2023-05-10T19:03:15.903Z,17.72
2023-05-10T19:04:15.989Z,17.57
2023-05-10T19:05:16.312Z,17.56
2023-05-10T19:06:15.928Z,17.64
2023-05-10T19:07:15.943Z,17.65
2023-05-10T19:08:15.950Z,17.45
2023-05-10T19:09:15.956Z,17.49
2023-05-10T19:10:15.981Z,17.46
2023-05-10T19:11:15.990Z,17.44
2023-05-10T19:12:15.973Z,17.51
2023-05-10T19:13:15.993Z,17.49
2023-05-10T19:14:15.999Z,17.46
2023-05-10T19:15:17.661Z,17.45
2023-05-10T19:16:16.112Z,17.46
2023-05-10T19:17:16.058Z,17.45
2023-05-10T19:18:16.235Z,17.45
2023-05-10T19:19:16.044Z,17.48
2023-05-10T19:20:16.536Z,17.39
2023-05-10T19:21:16.176Z,17.46
2023-05-10T19:22:16.065Z,17.44
2023-05-10T19:23:16.119Z,17.48
2023-05-10T19:24:16.085Z,17.42
2023-05-10T19:25:16.304Z,17.34
2023-05-10T19:26:16.170Z,17.39
2023-05-10T19:27:16.139Z,17.31
2023-05-10T19:28:16.125Z,17.31
2023-05-10T19:29:16.122Z,17.33
2023-05-10T19:30:16.135Z,17.34
2023-05-10T19:31:16.188Z,17.31
2023-05-10T19:32:16.149Z,17.22
2023-05-10T19:33:16.170Z,17.19
2023-05-10T19:34:16.164Z,17.19
2023-05-10T19:35:16.488Z,17.16
2023-05-10T19:36:16.188Z,17.23
2023-05-10T19:38:03.742Z,17.20
2023-05-10T19:39:03.750Z,17.22
2023-05-10T19:40:03.769Z,17.16
2023-05-10T19:41:03.781Z,17.16
2023-05-10T19:42:03.778Z,17.15
2023-05-10T19:43:03.811Z,17.20
2023-05-10T19:44:03.795Z,17.20
2023-05-10T19:45:03.815Z,17.20
2023-05-10T19:46:03.808Z,17.16
2023-05-10T19:47:03.873Z,17.29
2023-05-10T19:48:03.915Z,17.22
2023-05-10T19:49:03.842Z,17.19
2023-05-10T19:50:03.884Z,17.27
2023-05-10T19:51:03.860Z,17.22
2023-05-10T19:52:03.852Z,17.19
2023-05-10T19:53:03.875Z,17.24
2023-05-10T19:54:03.902Z,17.27
2023-05-10T19:55:03.882Z,17.24
2023-05-10T19:56:03.897Z,17.20
2023-05-10T19:57:03.898Z,17.20
2023-05-10T19:58:03.918Z,17.20
2023-05-10T19:59:03.963Z,17.22
2023-05-10T20:00:03.937Z,17.23
2023-05-10T20:01:04.034Z,17.20
2023-05-10T20:02:03.949Z,17.24
2023-05-10T20:03:03.966Z,17.27
2023-05-10T20:04:04.032Z,17.23
2023-05-10T20:05:03.961Z,17.24
2023-05-10T20:06:04.036Z,17.30
2023-05-10T20:07:03.984Z,17.24
2023-05-10T20:08:03.998Z,17.29
2023-05-10T20:09:04.013Z,17.23
2023-05-10T20:10:04.008Z,17.34
2023-05-10T20:11:04.059Z,17.34
2023-05-10T20:12:04.031Z,17.27
2023-05-10T20:13:04.042Z,17.27
2023-05-10T20:14:04.041Z,17.31
2023-05-10T20:15:04.073Z,17.20
2023-05-10T20:16:04.059Z,17.30
2023-05-10T20:17:04.163Z,17.22
2023-05-10T20:18:04.105Z,17.19
2023-05-10T20:19:04.157Z,17.23
2023-05-10T20:20:04.115Z,17.26
2023-05-10T20:21:04.120Z,17.16
2023-05-10T20:22:04.116Z,17.22
2023-05-10T20:23:04.168Z,17.23
2023-05-10T20:24:04.124Z,17.23
2023-05-10T20:25:04.134Z,17.19
2023-05-10T20:26:04.155Z,17.19
2023-05-10T20:27:04.155Z,17.20
2023-05-10T20:28:04.157Z,17.26
2023-05-10T20:29:04.175Z,17.16
2023-05-10T20:30:04.174Z,17.23
2023-05-10T20:31:04.258Z,17.22
2023-05-10T20:32:04.192Z,17.22
2023-05-10T20:33:04.312Z,17.20
2023-05-10T20:34:04.216Z,17.24
2023-05-10T20:35:04.225Z,17.22
2023-05-10T20:36:04.236Z,17.19
2023-05-10T20:37:04.244Z,17.22
2023-05-10T20:38:04.260Z,17.23
2023-05-10T20:39:04.259Z,17.14
2023-05-10T20:40:04.262Z,17.05
2023-05-10T20:41:04.283Z,17.09
2023-05-10T20:42:04.279Z,17.09
2023-05-10T20:43:04.298Z,17.12
2023-05-10T20:44:04.301Z,17.14
2023-05-10T20:45:04.320Z,17.12
2023-05-10T20:46:04.456Z,17.15
2023-05-10T20:47:04.357Z,17.02
2023-05-10T20:48:04.371Z,17.11
2023-05-10T20:49:04.344Z,17.06
2023-05-10T20:50:04.388Z,17.01
2023-05-10T20:51:04.360Z,17.04
2023-05-10T20:52:04.375Z,17.04
2023-05-10T20:53:04.381Z,16.99
2023-05-10T20:54:04.420Z,17.06
2023-05-10T20:55:04.416Z,17.02
2023-05-10T20:56:04.415Z,17.01
2023-05-10T20:57:04.406Z,16.97
2023-05-10T20:58:05.241Z,17.04
2023-05-10T20:59:04.443Z,16.99
2023-05-10T21:00:04.439Z,16.91
2023-05-10T21:01:04.446Z,16.93
2023-05-10T21:02:04.523Z,16.90
2023-05-10T21:03:04.560Z,16.87
2023-05-10T21:04:04.474Z,16.93
2023-05-10T21:05:04.499Z,16.91
2023-05-10T21:06:04.489Z,16.87
2023-05-10T21:07:04.499Z,16.89
2023-05-10T21:08:04.507Z,16.90
2023-05-10T21:09:04.508Z,16.81
2023-05-10T21:10:04.535Z,16.87
2023-05-10T21:11:04.531Z,16.78
2023-05-10T21:12:04.553Z,16.79
2023-05-10T21:13:04.543Z,16.79
2023-05-10T21:14:04.566Z,16.81
2023-05-10T21:15:04.563Z,16.81
2023-05-10T21:16:04.616Z,16.79
2023-05-10T21:17:04.577Z,16.86
2023-05-10T21:18:04.682Z,16.84
2023-05-10T21:19:04.719Z,16.86
2023-05-10T21:20:04.690Z,16.76
2023-05-10T21:21:04.616Z,16.74
2023-05-10T21:22:04.620Z,16.81
2023-05-10T21:23:04.634Z,16.87
2023-05-10T21:24:04.636Z,16.81
2023-05-10T21:25:04.649Z,16.76
2023-05-10T21:26:04.706Z,16.72
2023-05-10T21:27:04.676Z,16.69
2023-05-10T21:28:04.677Z,16.89
2023-05-10T21:29:04.720Z,16.76
2023-05-10T21:30:04.822Z,16.78
2023-05-10T21:31:04.708Z,16.79
2023-05-10T21:32:04.888Z,16.83
2023-05-10T21:33:04.943Z,16.74
2023-05-10T21:34:04.722Z,16.86
2023-05-10T21:35:04.760Z,16.79
2023-05-10T21:36:04.842Z,16.79
2023-05-10T21:37:04.754Z,16.78
2023-05-10T21:38:04.765Z,16.78
2023-05-10T21:39:04.771Z,16.81
2023-05-10T21:41:04.796Z,16.76
2023-05-10T21:42:04.831Z,16.86
2023-05-10T21:43:04.804Z,16.89
2023-05-10T21:44:04.816Z,16.78
2023-05-10T21:45:04.821Z,16.86
2023-05-10T21:46:04.938Z,16.79
2023-05-10T21:47:04.832Z,16.83
2023-05-10T21:48:04.869Z,16.84
2023-05-10T21:49:04.856Z,16.81
2023-05-10T21:50:04.867Z,16.76
2023-05-10T21:51:04.901Z,16.69
2023-05-10T21:52:04.922Z,16.86
2023-05-10T21:53:04.896Z,16.84
2023-05-10T21:54:04.891Z,16.75
2023-05-10T21:55:04.910Z,16.69
2023-05-10T21:56:04.905Z,16.76
2023-05-10T21:57:04.925Z,16.84
2023-05-10T21:58:04.924Z,16.81
2023-05-10T21:59:04.958Z,16.86
2023-05-10T22:00:04.938Z,16.79
2023-05-10T22:01:04.994Z,16.79
2023-05-10T22:02:05.010Z,16.83
2023-05-10T22:03:05.088Z,16.72
2023-05-10T22:04:04.976Z,16.81
2023-05-10T22:05:04.980Z,16.83
2023-05-10T22:06:05.001Z,16.76
2023-05-10T22:07:05.028Z,16.86
2023-05-10T22:08:05.008Z,16.79
2023-05-10T22:09:05.013Z,16.78
2023-05-10T22:10:05.022Z,16.87
2023-05-10T22:11:05.073Z,16.78
2023-05-10T22:12:05.058Z,16.78
2023-05-10T22:13:05.064Z,16.81
2023-05-10T22:14:05.057Z,16.83
2023-05-10T22:16:05.075Z,16.81
2023-05-10T22:17:05.159Z,16.79
2023-05-10T22:18:05.192Z,16.84
2023-05-10T22:19:05.225Z,16.87
2023-05-10T22:20:05.102Z,16.84
2023-05-10T22:21:05.126Z,16.84
2023-05-10T22:22:05.122Z,16.84
2023-05-10T22:23:05.162Z,16.83
2023-05-10T22:24:05.145Z,16.86
2023-05-10T22:25:05.153Z,16.83
2023-05-10T22:26:05.156Z,16.79
2023-05-10T22:27:05.167Z,16.86
2023-05-10T22:28:05.180Z,16.78
2023-05-10T22:29:05.189Z,16.83
2023-05-10T22:30:05.200Z,16.75
2023-05-10T22:31:05.249Z,16.72
2023-05-10T22:32:05.223Z,16.81
2023-05-10T22:33:05.261Z,16.78
2023-05-10T22:34:05.236Z,16.76
2023-05-10T22:35:05.250Z,16.76
2023-05-10T22:36:05.247Z,16.72
2023-05-10T22:37:05.256Z,16.72
2023-05-10T22:38:05.269Z,16.66
2023-05-10T22:39:05.284Z,16.60
2023-05-10T22:40:05.325Z,16.66
2023-05-10T22:41:05.287Z,16.60
2023-05-10T22:42:05.314Z,16.72
2023-05-10T22:43:05.306Z,16.66
2023-05-10T22:44:05.312Z,16.68
2023-05-10T22:45:05.319Z,16.68
2023-05-10T22:46:05.359Z,16.69
2023-05-10T22:47:05.333Z,16.69
2023-05-10T22:48:05.428Z,16.68
2023-05-10T22:49:05.354Z,16.69
2023-05-10T22:50:05.364Z,16.71
2023-05-10T22:51:05.371Z,16.65
2023-05-10T22:52:05.373Z,16.65
2023-05-10T22:53:05.388Z,16.66
2023-05-10T22:54:05.389Z,16.71
2023-05-10T22:55:05.434Z,16.60
2023-05-10T22:56:05.415Z,16.68
2023-05-10T22:57:05.412Z,16.61
2023-05-10T22:58:05.420Z,16.58
2023-05-10T22:59:05.437Z,16.64
2023-05-10T23:00:05.436Z,16.58
2023-05-10T23:01:05.460Z,16.61
2023-05-10T23:02:05.517Z,16.60
2023-05-10T23:03:05.494Z,16.60
2023-05-10T23:04:05.475Z,16.64
2023-05-10T23:05:05.586Z,16.64
2023-05-10T23:06:05.496Z,16.61
2023-05-10T23:07:05.507Z,16.61
2023-05-10T23:08:05.513Z,16.61
2023-05-10T23:09:05.522Z,16.54
2023-05-10T23:10:05.520Z,16.53
2023-05-10T23:11:05.548Z,16.56
2023-05-10T23:12:05.548Z,16.54
2023-05-10T23:13:05.544Z,16.54
2023-05-10T23:14:05.555Z,16.54
2023-05-10T23:15:05.569Z,16.56
2023-05-10T23:16:05.662Z,16.46
2023-05-10T23:17:05.593Z,16.50
2023-05-10T23:18:05.640Z,16.46
2023-05-10T23:19:05.648Z,16.50
2023-05-10T23:20:05.610Z,16.51
2023-05-10T23:21:05.617Z,16.51
2023-05-10T23:22:05.638Z,16.60
2023-05-10T23:23:05.635Z,16.58
2023-05-10T23:24:05.674Z,16.51
2023-05-10T23:25:05.670Z,16.56
2023-05-10T23:26:05.665Z,16.54
2023-05-10T23:27:05.683Z,16.54
2023-05-10T23:28:05.675Z,16.64
2023-05-10T23:29:05.705Z,16.61
2023-05-10T23:30:05.690Z,16.57
2023-05-10T23:31:05.717Z,16.58
2023-05-10T23:32:05.759Z,16.61
2023-05-10T23:33:05.812Z,16.60
2023-05-10T23:34:05.718Z,16.58
2023-05-10T23:35:05.731Z,16.61
2023-05-10T23:36:05.747Z,16.61
2023-05-10T23:37:05.745Z,16.58
2023-05-10T23:38:05.759Z,16.61
2023-05-10T23:39:05.777Z,16.56
2023-05-10T23:40:05.773Z,16.65
2023-05-10T23:41:05.780Z,16.66
2023-05-10T23:42:05.797Z,16.61
2023-05-10T23:43:05.823Z,16.61
2023-05-10T23:44:05.811Z,16.61
2023-05-10T23:45:05.819Z,16.58
2023-05-10T23:46:05.945Z,16.61
2023-05-10T23:47:05.836Z,16.58
2023-05-10T23:48:05.876Z,16.64
2023-05-10T23:49:05.854Z,16.60
2023-05-10T23:50:05.866Z,16.58
2023-05-10T23:51:05.875Z,16.56
2023-05-10T23:52:05.890Z,16.61
2023-05-10T23:53:05.879Z,16.54
2023-05-10T23:54:05.897Z,16.56
2023-05-10T23:55:05.904Z,16.56
2023-05-10T23:56:05.912Z,16.46
2023-05-10T23:57:05.916Z,16.47
2023-05-10T23:58:05.933Z,16.43
2023-05-10T23:59:06.062Z,16.38
